createdAt,value
2023-01-25T00:00:16.389Z,0
2023-01-25T00:01:16.771Z,0
2023-01-25T00:02:17.372Z,0
2023-01-25T00:03:17.899Z,0
2023-01-25T00:04:17.879Z,0
2023-01-25T00:05:19.390Z,0
2023-01-25T00:06:19.592Z,0
2023-01-25T00:07:20.566Z,0
2023-01-25T00:08:20.241Z,0
2023-01-25T00:09:20.843Z,0
2023-01-25T00:10:22.068Z,0
2023-01-25T00:11:22.111Z,0
2023-01-25T00:12:23.331Z,0
2023-01-25T00:13:23.286Z,0
2023-01-25T00:14:24.216Z,0
2023-01-25T00:15:25.932Z,0
2023-01-25T00:16:25.869Z,0
2023-01-25T00:17:25.855Z,0
2023-01-25T00:18:26.222Z,0
2023-01-25T00:19:26.886Z,0
2023-01-25T00:20:27.814Z,0
2023-01-25T00:21:28.920Z,0
2023-01-25T00:22:28.937Z,0
2023-01-25T00:23:29.593Z,0
2023-01-25T00:24:30.890Z,0
2023-01-25T00:25:31.424Z,0
2023-01-25T00:26:31.910Z,0
2023-01-25T00:27:31.858Z,0
2023-01-25T00:28:33.376Z,0
2023-01-25T00:29:33.301Z,0
2023-01-25T00:30:34.217Z,0
2023-01-25T00:31:35.133Z,0
2023-01-25T00:32:36.299Z,0
2023-01-25T00:33:36.232Z,0
2023-01-25T00:34:37.157Z,0
2023-01-25T00:35:37.682Z,0
2023-01-25T00:36:37.602Z,0
2023-01-25T00:37:37.887Z,0
2023-01-25T00:38:37.831Z,0
2023-01-25T00:39:38.762Z,0
2023-01-25T00:40:39.411Z,0
2023-01-25T00:41:40.781Z,0
2023-01-25T00:42:42.143Z,0
2023-01-25T00:43:42.327Z,0
2023-01-25T00:44:42.237Z,0
2023-01-25T00:45:43.566Z,0
2023-01-25T00:46:44.153Z,0
2023-01-25T00:47:44.681Z,0
2023-01-25T00:48:44.884Z,0
2023-01-25T00:49:45.392Z,0
2023-01-25T00:50:45.331Z,0
2023-01-25T00:51:46.535Z,0
2023-01-25T00:52:47.468Z,0
2023-01-25T00:53:46.857Z,0
2023-01-25T00:54:48.047Z,0
2023-01-25T00:55:47.703Z,0
2023-01-25T00:56:48.902Z,0
2023-01-25T00:57:49.103Z,0
2023-01-25T00:58:48.731Z,0
2023-01-25T00:59:50.325Z,0
2023-01-25T01:00:50.664Z,0
2023-01-25T01:01:51.425Z,0
2023-01-25T01:02:52.155Z,0
2023-01-25T01:03:52.104Z,0
2023-01-25T01:04:54.131Z,0
2023-01-25T01:05:54.121Z,0
2023-01-25T01:06:54.501Z,0
2023-01-25T01:07:55.991Z,0
2023-01-25T01:08:56.626Z,0
2023-01-25T01:09:56.819Z,0
2023-01-25T01:10:57.056Z,0
2023-01-25T01:11:57.273Z,0
2023-01-25T01:12:58.178Z,0
2023-01-25T01:13:58.099Z,0
2023-01-25T01:14:59.293Z,0
2023-01-25T01:15:59.292Z,0
2023-01-25T01:17:03.114Z,0
2023-01-25T01:18:00.408Z,0
2023-01-25T01:19:00.728Z,0
2023-01-25T01:20:00.647Z,0
2023-01-25T01:21:01.577Z,0
2023-01-25T01:22:02.632Z,0
2023-01-25T01:23:03.119Z,0
2023-01-25T01:24:03.268Z,0
2023-01-25T01:25:03.228Z,0
2023-01-25T01:26:04.486Z,0
2023-01-25T01:27:04.701Z,0
2023-01-25T01:28:05.945Z,0
2023-01-25T01:29:05.904Z,0
2023-01-25T01:30:06.547Z,0
2023-01-25T01:31:07.501Z,0
2023-01-25T01:32:08.922Z,0
2023-01-25T01:33:08.859Z,0
2023-01-25T01:34:09.794Z,0
2023-01-25T01:35:10.501Z,0
2023-01-25T01:36:10.437Z,0
2023-01-25T01:37:11.657Z,0
2023-01-25T01:38:11.603Z,0
2023-01-25T01:39:12.796Z,0
2023-01-25T01:40:13.089Z,0
2023-01-25T01:41:14.106Z,0
2023-01-25T01:42:14.248Z,0
2023-01-25T01:43:14.147Z,0
2023-01-25T01:44:15.353Z,0
2023-01-25T01:45:15.746Z,0
2023-01-25T01:46:15.841Z,0
2023-01-25T01:47:16.365Z,0
2023-01-25T01:48:16.617Z,0
2023-01-25T01:49:16.663Z,0
2023-01-25T01:50:17.914Z,0
2023-01-25T01:51:19.652Z,0
2023-01-25T01:52:19.448Z,0
2023-01-25T01:53:19.377Z,0
2023-01-25T01:54:20.604Z,0
2023-01-25T01:55:21.655Z,0
2023-01-25T01:56:22.139Z,0
2023-01-25T01:57:22.168Z,0
2023-01-25T01:58:23.651Z,0
2023-01-25T01:59:23.589Z,0
2023-01-25T02:00:24.280Z,0
2023-01-25T02:01:25.930Z,0
2023-01-25T02:02:26.608Z,0
2023-01-25T02:03:26.877Z,0
2023-01-25T02:04:28.087Z,0
2023-01-25T02:05:28.119Z,0
2023-01-25T02:06:28.331Z,0
2023-01-25T02:07:28.523Z,0
2023-01-25T02:08:27.853Z,0
2023-01-25T02:09:28.673Z,0
2023-01-25T02:10:29.611Z,0
2023-01-25T02:11:30.981Z,0
2023-01-25T02:12:30.743Z,0
2023-01-25T02:13:31.949Z,0
2023-01-25T02:14:31.952Z,0
2023-01-25T02:15:33.223Z,0
2023-01-25T02:16:33.817Z,0
2023-01-25T02:17:33.759Z,0
2023-01-25T02:18:35.040Z,0
2023-01-25T02:19:35.553Z,0
2023-01-25T02:20:36.038Z,0
2023-01-25T02:21:35.666Z,0
2023-01-25T02:22:37.254Z,0
2023-01-25T02:23:37.479Z,0
2023-01-25T02:24:38.386Z,0
2023-01-25T02:25:38.895Z,0
2023-01-25T02:26:38.850Z,0
2023-01-25T02:27:39.749Z,0
2023-01-25T02:28:40.674Z,0
2023-01-25T02:29:40.896Z,0
2023-01-25T02:30:40.603Z,0
2023-01-25T02:31:42.334Z,0
2023-01-25T02:32:42.757Z,0
2023-01-25T02:33:42.760Z,0
2023-01-25T02:34:43.957Z,0
2023-01-25T02:35:44.189Z,0
2023-01-25T02:36:43.884Z,0
2023-01-25T02:37:44.591Z,0
2023-01-25T02:38:45.808Z,0
2023-01-25T02:39:45.735Z,0
2023-01-25T02:40:47.250Z,0
2023-01-25T02:41:47.476Z,0
2023-01-25T02:42:48.528Z,0
2023-01-25T02:43:48.805Z,0
2023-01-25T02:44:51.046Z,0
2023-01-25T02:45:49.029Z,0
2023-01-25T02:46:50.191Z,0
2023-01-25T02:47:50.434Z,0
2023-01-25T02:48:51.687Z,0
2023-01-25T02:49:51.511Z,0
2023-01-25T02:50:52.799Z,0
2023-01-25T02:51:53.012Z,0
2023-01-25T02:52:53.178Z,0
2023-01-25T02:53:52.828Z,0
2023-01-25T02:54:53.784Z,0
2023-01-25T02:55:55.301Z,0
2023-01-25T02:56:55.857Z,0
2023-01-25T02:57:55.922Z,0
2023-01-25T02:58:57.140Z,0
2023-01-25T02:59:57.488Z,0
2023-01-25T03:00:58.040Z,0
2023-01-25T03:01:58.694Z,0
2023-01-25T03:02:59.327Z,0
2023-01-25T03:03:59.762Z,0
2023-01-25T03:04:59.974Z,0
2023-01-25T03:06:00.493Z,0
2023-01-25T03:07:00.457Z,0
2023-01-25T03:08:01.482Z,0
2023-01-25T03:09:02.071Z,0
2023-01-25T03:10:02.034Z,0
2023-01-25T03:11:03.261Z,0
2023-01-25T03:12:03.265Z,0
2023-01-25T03:13:03.603Z,0
2023-01-25T03:14:03.538Z,0
2023-01-25T03:15:04.159Z,0
2023-01-25T03:16:05.334Z,0
2023-01-25T03:17:05.543Z,0
2023-01-25T03:18:05.466Z,0
2023-01-25T03:19:06.884Z,0
2023-01-25T03:20:07.102Z,0
2023-01-25T03:21:07.696Z,0
2023-01-25T03:22:07.618Z,0
2023-01-25T03:23:08.629Z,0
2023-01-25T03:24:10.463Z,0
2023-01-25T03:25:11.111Z,0
2023-01-25T03:26:11.443Z,0
2023-01-25T03:27:11.674Z,0
2023-01-25T03:28:11.681Z,0
2023-01-25T03:29:13.364Z,0
2023-01-25T03:30:12.708Z,0
2023-01-25T03:31:14.203Z,0
2023-01-25T03:32:14.825Z,0
2023-01-25T03:33:14.958Z,0
2023-01-25T03:34:15.529Z,0
2023-01-25T03:35:16.332Z,0
2023-01-25T03:36:16.880Z,0
2023-01-25T03:37:17.129Z,0
2023-01-25T03:38:17.904Z,0
2023-01-25T03:39:18.417Z,0
2023-01-25T03:40:18.705Z,0
2023-01-25T03:41:18.920Z,0
2023-01-25T03:42:19.141Z,0
2023-01-25T03:43:19.914Z,0
2023-01-25T03:44:21.109Z,0
2023-01-25T03:45:22.446Z,0
2023-01-25T03:46:22.366Z,0
2023-01-25T03:47:23.423Z,0
2023-01-25T03:48:23.662Z,0
2023-01-25T03:49:24.369Z,0
2023-01-25T03:50:25.045Z,0
2023-01-25T03:51:26.229Z,0
2023-01-25T03:52:26.741Z,0
2023-01-25T03:53:26.471Z,0
2023-01-25T03:54:27.412Z,0
2023-01-25T03:55:28.369Z,0
2023-01-25T03:56:28.593Z,0
2023-01-25T03:57:28.865Z,0
2023-01-25T03:58:28.770Z,0
2023-01-25T03:59:29.773Z,0
2023-01-25T04:00:31.042Z,0
2023-01-25T04:01:31.211Z,0
2023-01-25T04:02:32.032Z,0
2023-01-25T04:03:32.580Z,0
2023-01-25T04:04:33.125Z,0
2023-01-25T04:05:33.656Z,0
2023-01-25T04:06:33.921Z,0
2023-01-25T04:07:34.467Z,0
2023-01-25T04:08:34.697Z,0
2023-01-25T04:09:35.736Z,0
2023-01-25T04:10:36.705Z,0
2023-01-25T04:11:36.956Z,0
2023-01-25T04:12:37.938Z,0
2023-01-25T04:13:38.237Z,0
2023-01-25T04:14:56.166Z,0
2023-01-25T04:15:39.103Z,0
2023-01-25T04:16:40.392Z,0
2023-01-25T04:17:40.972Z,0
2023-01-25T04:18:40.927Z,0
2023-01-25T04:19:42.460Z,0
2023-01-25T04:20:43.235Z,0
2023-01-25T04:21:42.973Z,0
2023-01-25T04:22:43.627Z,0
2023-01-25T04:23:45.275Z,0
2023-01-25T04:24:45.490Z,0
2023-01-25T04:25:45.469Z,0
2023-01-25T04:26:46.389Z,0
2023-01-25T04:27:47.645Z,0
2023-01-25T04:28:48.261Z,0
2023-01-25T04:29:58.272Z,0
2023-01-25T04:30:50.246Z,0
2023-01-25T04:31:51.777Z,0
2023-01-25T04:32:52.571Z,0
2023-01-25T04:33:51.942Z,0
2023-01-25T04:34:52.222Z,0
2023-01-25T04:35:52.939Z,0
2023-01-25T04:36:53.867Z,0
2023-01-25T04:37:55.068Z,0
2023-01-25T04:38:55.272Z,0
2023-01-25T04:39:55.199Z,0
2023-01-25T04:40:55.932Z,0
2023-01-25T04:41:57.137Z,0
2023-01-25T04:42:57.648Z,0
2023-01-25T04:43:57.982Z,0
2023-01-25T04:44:58.337Z,0
2023-01-25T04:45:59.927Z,0
2023-01-25T04:47:00.164Z,0
2023-01-25T04:48:00.815Z,0
2023-01-25T04:49:01.762Z,0
2023-01-25T04:50:03.060Z,0
2023-01-25T04:51:04.389Z,0
2023-01-25T04:52:04.793Z,0
2023-01-25T04:53:04.994Z,0
2023-01-25T04:54:05.291Z,0
2023-01-25T04:55:05.235Z,0
2023-01-25T04:56:06.889Z,0
2023-01-25T04:57:07.283Z,0
2023-01-25T04:58:07.801Z,0
2023-01-25T04:59:08.303Z,0
2023-01-25T05:00:07.959Z,0
2023-01-25T05:01:09.398Z,0
2023-01-25T05:02:09.572Z,0
2023-01-25T05:03:09.978Z,0
2023-01-25T05:04:11.627Z,0
2023-01-25T05:05:12.393Z,0
2023-01-25T05:06:12.907Z,0
2023-01-25T05:07:13.393Z,0
2023-01-25T05:08:13.908Z,0
2023-01-25T05:09:14.414Z,0
2023-01-25T05:10:14.907Z,0
2023-01-25T05:11:14.862Z,0
2023-01-25T05:12:16.355Z,0
2023-01-25T05:13:16.705Z,0
2023-01-25T05:14:16.480Z,0
2023-01-25T05:15:17.528Z,0
2023-01-25T05:16:20.673Z,0
2023-01-25T05:17:18.279Z,0
2023-01-25T05:18:18.486Z,0
2023-01-25T05:19:18.723Z,0
2023-01-25T05:20:18.975Z,0
2023-01-25T05:21:18.910Z,0
2023-01-25T05:22:20.107Z,0
2023-01-25T05:23:20.317Z,0
2023-01-25T05:24:21.026Z,0
2023-01-25T05:25:22.295Z,0
2023-01-25T05:26:21.819Z,0
2023-01-25T05:27:22.752Z,0
2023-01-25T05:28:24.013Z,0
2023-01-25T05:29:23.642Z,0
2023-01-25T05:30:24.051Z,0
2023-01-25T05:31:25.987Z,0
2023-01-25T05:32:26.376Z,0
2023-01-25T05:33:26.020Z,0
2023-01-25T05:34:27.663Z,0
2023-01-25T05:35:28.812Z,0
2023-01-25T05:36:28.021Z,0
2023-01-25T05:37:28.245Z,0
2023-01-25T05:38:28.747Z,0
2023-01-25T05:39:28.944Z,0
2023-01-25T05:40:30.152Z,0
2023-01-25T05:41:29.805Z,0
2023-01-25T05:42:30.722Z,0
2023-01-25T05:43:32.238Z,0
2023-01-25T05:44:32.297Z,0
2023-01-25T05:45:32.479Z,0
2023-01-25T05:46:32.936Z,0
2023-01-25T05:47:32.887Z,0
2023-01-25T05:48:34.131Z,0
2023-01-25T05:49:34.090Z,0
2023-01-25T05:50:35.102Z,0
2023-01-25T05:51:35.590Z,0
2023-01-25T05:52:35.240Z,0
2023-01-25T05:53:36.432Z,0
2023-01-25T05:54:37.305Z,0
2023-01-25T05:55:37.293Z,0
2023-01-25T05:56:38.571Z,0
2023-01-25T05:57:38.533Z,0
2023-01-25T05:58:38.973Z,0
2023-01-25T05:59:40.232Z,0
2023-01-25T06:00:41.456Z,0
2023-01-25T06:01:41.687Z,0
2023-01-25T06:02:42.587Z,0
2023-01-25T06:03:43.338Z,0
2023-01-25T06:04:43.447Z,0
2023-01-25T06:05:44.753Z,0
2023-01-25T06:06:44.969Z,0
2023-01-25T06:07:44.609Z,0
2023-01-25T06:08:45.680Z,0
2023-01-25T06:09:45.679Z,0
2023-01-25T06:10:45.876Z,0
2023-01-25T06:11:47.156Z,0
2023-01-25T06:12:47.368Z,0
2023-01-25T06:13:47.875Z,0
2023-01-25T06:14:47.925Z,0
2023-01-25T06:15:49.220Z,0
2023-01-25T06:16:49.491Z,0
2023-01-25T06:17:50.179Z,0
2023-01-25T06:18:51.377Z,0
2023-01-25T06:19:52.311Z,0
2023-01-25T06:20:52.589Z,0
2023-01-25T06:21:53.276Z,0
2023-01-25T06:22:53.995Z,0
2023-01-25T06:23:56.818Z,0
2023-01-25T06:24:55.119Z,0
2023-01-25T06:25:56.344Z,0
2023-01-25T06:26:56.568Z,0
2023-01-25T06:27:57.055Z,0
2023-01-25T06:28:58.944Z,0
2023-01-25T06:29:58.173Z,0
2023-01-25T06:30:59.545Z,0
2023-01-25T06:31:59.635Z,0
2023-01-25T06:32:59.861Z,0
2023-01-25T06:34:00.041Z,0
2023-01-25T06:35:00.630Z,0
2023-01-25T06:36:01.639Z,0
2023-01-25T06:37:01.268Z,0
2023-01-25T06:38:02.490Z,0
2023-01-25T06:39:03.005Z,0
2023-01-25T06:40:02.937Z,0
2023-01-25T06:41:02.668Z,0
2023-01-25T06:42:03.327Z,0
2023-01-25T06:43:04.832Z,0
2023-01-25T06:44:04.779Z,0
2023-01-25T06:45:05.308Z,0
2023-01-25T06:46:06.285Z,0
2023-01-25T06:47:07.468Z,0
2023-01-25T06:48:07.394Z,0
2023-01-25T06:49:08.013Z,0
2023-01-25T06:50:09.566Z,0
2023-01-25T06:51:10.025Z,0
2023-01-25T06:52:09.757Z,0
2023-01-25T06:53:10.711Z,0
2023-01-25T06:54:11.931Z,0
2023-01-25T06:55:12.728Z,0
2023-01-25T06:56:14.497Z,0
2023-01-25T06:57:13.447Z,0
2023-01-25T06:58:13.741Z,0
2023-01-25T06:59:14.006Z,0
2023-01-25T07:00:14.951Z,0
2023-01-25T07:01:15.298Z,0
2023-01-25T07:02:15.589Z,0
2023-01-25T07:03:15.638Z,5.63
2023-01-25T07:04:19.932Z,5.63
2023-01-25T07:05:18.048Z,5.63
2023-01-25T07:06:17.771Z,5.63
2023-01-25T07:07:18.115Z,5.63
2023-01-25T07:08:19.471Z,5.63
2023-01-25T07:09:19.832Z,5.63
2023-01-25T07:10:20.267Z,5.63
2023-01-25T07:11:21.485Z,5.63
2023-01-25T07:12:21.804Z,5.63
2023-01-25T07:13:22.017Z,5.63
2023-01-25T07:14:22.549Z,5.63
2023-01-25T07:15:23.145Z,11.25
2023-01-25T07:16:23.478Z,11.25
2023-01-25T07:17:23.700Z,11.25
2023-01-25T07:18:32.772Z,11.25
2023-01-25T07:19:24.981Z,11.25
2023-01-25T07:20:25.216Z,11.25
2023-01-25T07:21:25.525Z,11.25
2023-01-25T07:22:25.904Z,11.25
2023-01-25T07:23:26.859Z,11.25
2023-01-25T07:24:27.486Z,11.25
2023-01-25T07:25:27.845Z,11.25
2023-01-25T07:26:27.779Z,11.25
2023-01-25T07:27:29.302Z,16.88
2023-01-25T07:28:29.512Z,16.88
2023-01-25T07:29:30.045Z,16.88
2023-01-25T07:30:30.264Z,16.88
2023-01-25T07:31:31.796Z,16.88
2023-01-25T07:32:31.479Z,16.88
2023-01-25T07:33:32.388Z,16.88
2023-01-25T07:34:33.614Z,16.88
2023-01-25T07:35:33.540Z,16.88
2023-01-25T07:36:34.786Z,16.88
2023-01-25T07:37:35.279Z,22.5
2023-01-25T07:38:35.499Z,22.5
2023-01-25T07:39:36.003Z,22.5
2023-01-25T07:40:36.255Z,22.5
2023-01-25T07:41:37.203Z,22.5
2023-01-25T07:42:37.446Z,22.5
2023-01-25T07:43:37.604Z,22.5
2023-01-25T07:44:38.199Z,22.5
2023-01-25T07:45:38.905Z,28.13
2023-01-25T07:46:38.926Z,28.13
2023-01-25T07:47:41.937Z,28.13
2023-01-25T07:48:40.243Z,28.13
2023-01-25T07:49:40.357Z,28.13
2023-01-25T07:50:40.289Z,28.13
2023-01-25T07:51:41.250Z,33.75
2023-01-25T07:52:41.185Z,33.75
2023-01-25T07:53:42.504Z,33.75
2023-01-25T07:54:43.037Z,33.75
2023-01-25T07:55:43.079Z,33.75
2023-01-25T07:56:43.583Z,39.38
2023-01-25T07:57:43.255Z,39.38
2023-01-25T07:58:44.488Z,39.38
2023-01-25T07:59:45.035Z,39.38
2023-01-25T08:00:45.452Z,39.38
2023-01-25T08:01:46.159Z,39.38
2023-01-25T08:02:46.137Z,39.38
2023-01-25T08:03:46.147Z,39.38
2023-01-25T08:04:47.487Z,39.38
2023-01-25T08:05:49.673Z,45
2023-01-25T08:06:47.974Z,45
2023-01-25T08:07:48.461Z,45
2023-01-25T08:08:48.689Z,45
2023-01-25T08:09:50.063Z,45
2023-01-25T08:10:50.295Z,50.63
2023-01-25T08:11:50.574Z,50.63
2023-01-25T08:12:51.107Z,50.63
2023-01-25T08:13:51.324Z,50.63
2023-01-25T08:14:51.566Z,56.25
2023-01-25T08:15:51.995Z,56.25
2023-01-25T08:16:53.299Z,56.25
2023-01-25T08:17:53.495Z,56.25
2023-01-25T08:18:53.711Z,56.25
2023-01-25T08:19:53.946Z,56.25
2023-01-25T08:20:55.199Z,56.25
2023-01-25T08:21:55.549Z,61.88
2023-01-25T08:22:55.554Z,61.88
2023-01-25T08:23:55.718Z,61.88
2023-01-25T08:24:55.947Z,61.88
2023-01-25T08:25:57.289Z,61.88
2023-01-25T08:26:57.931Z,61.88
2023-01-25T08:27:58.255Z,61.88
2023-01-25T08:28:58.509Z,61.88
2023-01-25T08:29:58.865Z,61.88
2023-01-25T08:31:13.316Z,61.88
2023-01-25T08:32:00.276Z,61.88
2023-01-25T08:33:00.237Z,61.88
2023-01-25T08:34:02.047Z,61.88
2023-01-25T08:35:01.997Z,61.88
2023-01-25T08:36:03.309Z,61.88
2023-01-25T08:37:03.645Z,61.88
2023-01-25T08:38:03.320Z,61.88
2023-01-25T08:39:04.268Z,61.88
2023-01-25T08:40:05.920Z,61.88
2023-01-25T08:41:06.191Z,61.88
2023-01-25T08:42:06.978Z,61.88
2023-01-25T08:43:07.555Z,61.88
2023-01-25T08:44:07.508Z,61.88
2023-01-25T08:45:09.100Z,61.88
2023-01-25T08:46:09.040Z,67.5
2023-01-25T08:47:09.166Z,67.5
2023-01-25T08:48:09.676Z,67.5
2023-01-25T08:49:09.902Z,67.5
2023-01-25T08:50:11.384Z,67.5
2023-01-25T08:51:11.898Z,67.5
2023-01-25T08:52:12.499Z,67.5
2023-01-25T08:53:12.745Z,67.5
2023-01-25T08:54:13.023Z,67.5
2023-01-25T08:55:13.590Z,67.5
2023-01-25T08:56:14.597Z,73.13
2023-01-25T08:57:15.111Z,73.13
2023-01-25T08:58:14.857Z,73.13
2023-01-25T08:59:16.427Z,73.13
2023-01-25T09:00:17.593Z,73.13
2023-01-25T09:01:17.029Z,73.13
2023-01-25T09:02:17.288Z,73.13
2023-01-25T09:03:17.176Z,73.13
2023-01-25T09:04:18.393Z,73.13
2023-01-25T09:05:19.092Z,73.13
2023-01-25T09:06:19.878Z,73.13
2023-01-25T09:07:20.184Z,73.13
2023-01-25T09:08:23.771Z,73.13
2023-01-25T09:09:21.847Z,73.13
2023-01-25T09:10:22.947Z,73.13
2023-01-25T09:11:22.242Z,73.13
2023-01-25T09:12:23.089Z,73.13
2023-01-25T09:13:25.108Z,67.5
2023-01-25T09:14:25.257Z,67.5
2023-01-25T09:15:25.167Z,67.5
2023-01-25T09:16:25.517Z,73.13
2023-01-25T09:17:26.095Z,73.13
2023-01-25T09:18:26.042Z,73.13
2023-01-25T09:19:27.284Z,73.13
2023-01-25T09:20:28.320Z,73.13
2023-01-25T09:21:29.006Z,78.75
2023-01-25T09:22:29.565Z,78.75
2023-01-25T09:23:29.275Z,78.75
2023-01-25T09:24:29.833Z,78.75
2023-01-25T09:25:30.880Z,84.38
2023-01-25T09:26:31.508Z,84.38
2023-01-25T09:27:31.725Z,84.38
2023-01-25T09:28:31.422Z,84.38
2023-01-25T09:29:32.357Z,84.38
2023-01-25T09:31:22.508Z,84.38
2023-01-25T09:31:42.591Z,78.75
2023-01-25T09:32:41.877Z,78.75
2023-01-25T09:33:42.161Z,78.75
2023-01-25T09:34:42.707Z,78.75
2023-01-25T09:35:43.207Z,84.38
2023-01-25T09:36:42.891Z,84.38
2023-01-25T09:37:43.929Z,84.38
2023-01-25T09:38:44.872Z,84.38
2023-01-25T09:39:45.488Z,84.38
2023-01-25T09:40:45.704Z,84.38
2023-01-25T09:41:46.306Z,84.38
2023-01-25T09:42:46.583Z,84.38
2023-01-25T09:43:46.602Z,84.38
2023-01-25T09:44:47.829Z,78.75
2023-01-25T09:45:48.059Z,78.75
2023-01-25T09:46:49.344Z,78.75
2023-01-25T09:47:49.625Z,84.38
2023-01-25T09:48:56.470Z,84.38
2023-01-25T09:49:50.447Z,84.38
2023-01-25T09:50:51.078Z,78.75
2023-01-25T09:51:51.065Z,84.38
2023-01-25T09:52:52.147Z,84.38
2023-01-25T09:53:53.096Z,84.38
2023-01-25T09:55:03.702Z,84.38
2023-01-25T09:55:54.352Z,84.38
2023-01-25T09:56:54.688Z,84.38
2023-01-25T09:57:55.011Z,84.38
2023-01-25T09:58:56.463Z,84.38
2023-01-25T09:59:56.416Z,84.38
2023-01-25T10:00:57.407Z,84.38
2023-01-25T10:01:58.414Z,84.38
2023-01-25T10:02:59.391Z,84.38
2023-01-25T10:03:59.392Z,84.38
2023-01-25T10:05:00.601Z,84.38
2023-01-25T10:06:00.871Z,84.38
2023-01-25T10:07:13.364Z,84.38
2023-01-25T10:08:01.635Z,84.38
2023-01-25T10:09:02.618Z,84.38
2023-01-25T10:10:03.967Z,84.38
2023-01-25T10:11:03.621Z,84.38
2023-01-25T10:12:04.761Z,84.38
2023-01-25T10:13:04.407Z,84.38
2023-01-25T10:14:05.647Z,84.38
2023-01-25T10:15:05.605Z,84.38
2023-01-25T10:16:12.112Z,84.38
2023-01-25T10:17:06.985Z,84.38
2023-01-25T10:18:07.913Z,84.38
2023-01-25T10:19:08.144Z,84.38
2023-01-25T10:20:08.891Z,84.38
2023-01-25T10:21:08.959Z,84.38
2023-01-25T10:22:09.266Z,84.38
2023-01-25T10:23:09.537Z,84.38
2023-01-25T10:24:09.726Z,84.38
2023-01-25T10:25:09.655Z,90
2023-01-25T10:26:10.886Z,90
2023-01-25T10:27:11.695Z,90
2023-01-25T10:28:13.284Z,95.63
2023-01-25T10:29:13.572Z,95.63
2023-01-25T10:30:13.966Z,95.63
2023-01-25T10:31:14.532Z,95.63
2023-01-25T10:32:14.705Z,90
2023-01-25T10:33:15.747Z,90
2023-01-25T10:34:16.291Z,90
2023-01-25T10:35:34.210Z,95.63
2023-01-25T10:36:17.319Z,95.63
2023-01-25T10:37:17.865Z,95.63
2023-01-25T10:38:18.551Z,101.25
2023-01-25T10:39:18.833Z,95.63
2023-01-25T10:40:21.274Z,95.63
2023-01-25T10:41:19.989Z,95.63
2023-01-25T10:42:19.935Z,95.63
2023-01-25T10:43:21.154Z,95.63
2023-01-25T10:44:21.388Z,95.63
2023-01-25T10:45:22.261Z,101.25
2023-01-25T10:46:22.430Z,101.25
2023-01-25T10:47:22.037Z,101.25
2023-01-25T10:48:23.279Z,101.25
2023-01-25T10:49:23.226Z,95.63
2023-01-25T10:50:24.469Z,95.63
2023-01-25T10:51:24.193Z,95.63
2023-01-25T10:52:24.852Z,95.63
2023-01-25T10:53:26.124Z,95.63
2023-01-25T10:54:28.817Z,101.25
2023-01-25T10:55:28.477Z,101.25
2023-01-25T10:56:28.438Z,101.25
2023-01-25T10:57:29.556Z,101.25
2023-01-25T10:58:31.085Z,101.25
2023-01-25T10:59:31.700Z,101.25
2023-01-25T11:00:34.678Z,101.25
2023-01-25T11:01:33.580Z,106.88
2023-01-25T11:02:33.604Z,106.88
2023-01-25T11:03:34.729Z,106.88
2023-01-25T11:04:34.642Z,101.25
2023-01-25T11:05:35.446Z,101.25
2023-01-25T11:06:36.662Z,101.25
2023-01-25T11:07:37.732Z,101.25
2023-01-25T11:08:39.246Z,101.25
2023-01-25T11:09:38.689Z,101.25
2023-01-25T11:10:40.214Z,101.25
2023-01-25T11:11:41.437Z,101.25
2023-01-25T11:12:40.646Z,101.25
2023-01-25T11:13:41.032Z,101.25
2023-01-25T11:14:41.053Z,101.25
2023-01-25T11:15:42.647Z,101.25
2023-01-25T11:16:42.459Z,101.25
2023-01-25T11:17:43.149Z,101.25
2023-01-25T11:18:43.947Z,101.25
2023-01-25T11:19:44.758Z,95.63
2023-01-25T11:20:44.983Z,95.63
2023-01-25T11:21:45.347Z,90
2023-01-25T11:22:44.904Z,90
2023-01-25T11:23:47.831Z,90
2023-01-25T11:24:46.425Z,90
2023-01-25T11:25:45.808Z,90
2023-01-25T11:26:47.065Z,90
2023-01-25T11:27:48.111Z,90
2023-01-25T11:28:48.104Z,90
2023-01-25T11:29:48.519Z,90
2023-01-25T11:30:50.089Z,90
2023-01-25T11:31:51.255Z,90
2023-01-25T11:32:50.797Z,90
2023-01-25T11:33:50.951Z,90
2023-01-25T11:34:51.172Z,90
2023-01-25T11:35:51.481Z,84.38
2023-01-25T11:36:52.027Z,84.38
2023-01-25T11:37:52.348Z,84.38
2023-01-25T11:38:52.379Z,84.38
2023-01-25T11:39:53.038Z,78.75
2023-01-25T11:40:54.284Z,78.75
2023-01-25T11:41:54.350Z,78.75
2023-01-25T11:42:55.279Z,78.75
2023-01-25T11:43:55.785Z,78.75
2023-01-25T11:44:56.048Z,78.75
2023-01-25T11:45:56.312Z,78.75
2023-01-25T11:46:57.820Z,78.75
2023-01-25T11:47:57.194Z,78.75
2023-01-25T11:48:57.421Z,78.75
2023-01-25T11:49:57.762Z,78.75
2023-01-25T11:50:58.083Z,78.75
2023-01-25T11:52:02.467Z,78.75
2023-01-25T11:52:58.972Z,78.75
2023-01-25T11:53:59.535Z,73.13
2023-01-25T11:54:59.748Z,73.13
2023-01-25T11:56:00.022Z,73.13
2023-01-25T11:57:01.298Z,78.75
2023-01-25T11:58:01.718Z,73.13
2023-01-25T11:59:01.651Z,73.13
2023-01-25T12:00:03.137Z,73.13
2023-01-25T12:01:02.818Z,73.13
2023-01-25T12:02:04.086Z,73.13
2023-01-25T12:03:05.412Z,73.13
2023-01-25T12:04:05.873Z,73.13
2023-01-25T12:05:21.431Z,73.13
2023-01-25T12:06:06.977Z,73.13
2023-01-25T12:07:07.484Z,73.13
2023-01-25T12:08:07.594Z,73.13
2023-01-25T12:09:08.286Z,73.13
2023-01-25T12:10:08.228Z,67.5
2023-01-25T12:11:09.864Z,67.5
2023-01-25T12:12:09.795Z,67.5
2023-01-25T12:13:11.055Z,73.13
2023-01-25T12:14:11.013Z,67.5
2023-01-25T12:15:13.072Z,67.5
2023-01-25T12:16:12.271Z,67.5
2023-01-25T12:17:12.534Z,67.5
2023-01-25T12:18:12.961Z,67.5
2023-01-25T12:19:13.621Z,67.5
2023-01-25T12:20:15.168Z,67.5
2023-01-25T12:21:31.940Z,67.5
2023-01-25T12:22:15.687Z,67.5
2023-01-25T12:23:16.881Z,67.5
2023-01-25T12:24:17.786Z,67.5
2023-01-25T12:25:18.010Z,67.5
2023-01-25T12:26:18.832Z,67.5
2023-01-25T12:27:19.184Z,67.5
2023-01-25T12:28:20.510Z,67.5
2023-01-25T12:29:21.532Z,67.5
2023-01-25T12:30:23.538Z,67.5
2023-01-25T12:31:22.890Z,67.5
2023-01-25T12:32:23.485Z,67.5
2023-01-25T12:33:31.259Z,67.5
2023-01-25T12:34:24.475Z,67.5
2023-01-25T12:35:24.685Z,67.5
2023-01-25T12:36:24.322Z,67.5
2023-01-25T12:37:25.838Z,67.5
2023-01-25T12:38:26.355Z,67.5
2023-01-25T12:39:29.637Z,67.5
2023-01-25T12:40:28.330Z,67.5
2023-01-25T12:41:28.830Z,67.5
2023-01-25T12:42:29.045Z,67.5
2023-01-25T12:43:29.542Z,67.5
2023-01-25T12:44:29.793Z,67.5
2023-01-25T12:45:30.018Z,67.5
2023-01-25T12:46:30.757Z,67.5
2023-01-25T12:47:31.514Z,67.5
2023-01-25T12:48:31.547Z,67.5
2023-01-25T12:49:32.483Z,67.5
2023-01-25T12:50:32.756Z,67.5
2023-01-25T12:51:33.377Z,67.5
2023-01-25T12:52:34.632Z,67.5
2023-01-25T12:53:35.176Z,67.5
2023-01-25T12:54:35.727Z,67.5
2023-01-25T12:55:36.223Z,67.5
2023-01-25T12:56:36.460Z,61.88
2023-01-25T12:57:37.425Z,61.88
2023-01-25T12:58:53.099Z,61.88
2023-01-25T12:59:38.793Z,61.88
2023-01-25T13:00:43.472Z,61.88
2023-01-25T13:01:41.303Z,61.88
2023-01-25T13:02:41.830Z,61.88
2023-01-25T13:03:42.089Z,61.88
2023-01-25T13:04:43.310Z,56.25
2023-01-25T13:05:42.980Z,56.25
2023-01-25T13:06:43.919Z,56.25
2023-01-25T13:07:44.423Z,56.25
2023-01-25T13:08:49.547Z,56.25
2023-01-25T13:09:49.863Z,56.25
2023-01-25T13:10:49.778Z,61.88
2023-01-25T13:11:50.757Z,61.88
2023-01-25T13:12:52.001Z,61.88
2023-01-25T13:13:52.341Z,56.25
2023-01-25T13:14:52.849Z,56.25
2023-01-25T13:15:52.853Z,56.25
2023-01-25T13:17:09.206Z,56.25
2023-01-25T13:17:54.077Z,56.25
2023-01-25T13:18:53.861Z,56.25
2023-01-25T13:19:54.349Z,56.25
2023-01-25T13:20:54.992Z,56.25
2023-01-25T13:21:56.148Z,56.25
2023-01-25T13:22:58.282Z,56.25
2023-01-25T13:23:57.052Z,56.25
2023-01-25T13:24:57.074Z,56.25
2023-01-25T13:25:57.276Z,50.63
2023-01-25T13:26:57.613Z,50.63
2023-01-25T13:27:57.519Z,50.63
2023-01-25T13:28:58.817Z,50.63
2023-01-25T13:29:59.228Z,50.63
2023-01-25T13:30:59.680Z,50.63
2023-01-25T13:32:10.862Z,50.63
2023-01-25T13:33:00.165Z,50.63
2023-01-25T13:34:01.145Z,50.63
2023-01-25T13:35:01.782Z,45
2023-01-25T13:36:01.997Z,45
2023-01-25T13:37:02.657Z,45
2023-01-25T13:38:03.909Z,45
2023-01-25T13:39:04.600Z,45
2023-01-25T13:40:12.076Z,45
2023-01-25T13:41:05.396Z,45
2023-01-25T13:42:06.049Z,45
2023-01-25T13:43:06.992Z,45
2023-01-25T13:44:08.496Z,45
2023-01-25T13:45:09.311Z,45
2023-01-25T13:46:09.736Z,45
2023-01-25T13:47:09.943Z,39.38
2023-01-25T13:48:09.903Z,39.38
2023-01-25T13:49:11.497Z,39.38
2023-01-25T13:50:12.009Z,39.38
2023-01-25T13:51:11.959Z,39.38
2023-01-25T13:52:12.677Z,39.38
2023-01-25T13:53:12.764Z,39.38
2023-01-25T13:54:14.224Z,39.38
2023-01-25T13:55:14.522Z,39.38
2023-01-25T13:56:15.757Z,39.38
2023-01-25T13:57:18.309Z,33.75
2023-01-25T13:58:16.826Z,33.75
2023-01-25T13:59:16.962Z,33.75